A- A+ FrançaisEnglishEspañol中国

le plus proche LFBT Tarbes-Lourdes-PyrénéesLFBR Muret-Lherm LFBL Limoges-Bellegarde LFBJ St-Junien

manche à air

La météo aéronautique pour les pilotes, la préparation du vol avec les METAR (METeorological Aerodrome Report, message d'observation des conditions météorologiques pour l'aviation) et Les TAF (Terminal Aerodrome Forecast : message de prévision à court terme des conditions météorologiques pour l'aviation). Et les autres ressources comme les VAC (Visual Approch Chart) et les NOTAM (Notice To Airman) pour préprer les vols.

Aéroport Laghouat (Algérie) / OACI DAUL/ IATA LOO

L'altitude de l'aéroport Laghouat est de 765 m=2510 ft. Il est situé à proximité de Laghouat (Algérie). La météo générale à 5 jours est disponible pour Laghouat situé à 7.1 km.

METAR de l'aéroport Laghouat - DAUL

DAUL 291000Z 22006KT CAVOK 31/07 Q1022

Décodage du METAR de l'aéroport Laghouat (DZ)

METAR émis par DAUL le dimanche 29 septembre 2019 à 10:00 heure TU. Attention ce METAR est obsolète car il a été émis il y a 10 heure et 19 minutes.

La visibilité est de supérieure à 10 km=supérieure à 6.2 sm.

La température est de 31°C=88 °F et le point rosée est de 7°C=45 °F . Ce qui correspond à 22% d'humidité relative.

Le QNH est de 1022 hPa=30.18 inHg

Vent de 6 kt=11 km/h, orienté à 220°.

Pas de nuages.

TAF de l'aéroport Laghouat - DAUL

DAUL 290800Z 2909/2918 22008KT 9999 FEW040

DAUL 290800Z 2909/2918 22008KT 9999 quelques nuages à 040

Aéroport à proximité de Laghouat

Météo générale à 5 jours à Laghouat (7.1 km)DAFH Aéroport Tilrempt Hassi R'mel (99 km)DAFI Aéroport Djelfa Tletsi (107 km)DAUG Aéroport Ghardaia Noumerate (173 km)DAAQ Aéroport Ain Oussera (196 km)DAAD Aéroport Bou Saada (210 km)DAOB Aéroport Tiaret (221 km)

Vue aérienne de l'aéroport Laghouat

NOTAM de l'aéroport Laghouat

Les NOTAM sont fournis sans aucune garantie de leur actualité. Le pilote est le seul responsable de la vérification de sa validité avant de l'utiliser opérationnellement pour préparer un vol ou l'utiliser lors de sa navigation.

Pas de NOTAM

Sources des données